createdAt,value
2019-01-14T00:00:05.398Z,7.20
2019-01-14T00:02:33.951Z,7.20
2019-01-14T00:05:02.428Z,7.30
2019-01-14T00:07:30.982Z,7.10
2019-01-14T00:09:59.527Z,7.10
2019-01-14T00:12:28.157Z,7.00
2019-01-14T00:14:56.666Z,7.20
2019-01-14T00:17:25.229Z,7.20
2019-01-14T00:19:53.803Z,7.20
2019-01-14T00:22:22.369Z,7.10
2019-01-14T00:24:50.841Z,7.20
2019-01-14T00:27:19.400Z,7.30
2019-01-14T00:29:47.903Z,7.20
2019-01-14T00:32:16.436Z,7.40
2019-01-14T00:34:44.977Z,7.30
2019-01-14T00:37:13.612Z,7.30
2019-01-14T00:39:42.153Z,7.30
2019-01-14T00:42:10.725Z,7.50
2019-01-14T00:44:39.337Z,7.40
2019-01-14T00:47:07.902Z,7.50
2019-01-14T00:49:36.506Z,7.50
2019-01-14T00:52:05.494Z,7.50
2019-01-14T00:54:34.089Z,7.50
2019-01-14T00:57:02.662Z,7.30
2019-01-14T00:59:31.197Z,7.40
2019-01-14T01:01:59.692Z,7.30
2019-01-14T01:04:28.316Z,7.40
2019-01-14T01:06:56.881Z,7.50
2019-01-14T01:09:25.355Z,7.30
2019-01-14T01:11:53.897Z,7.30
2019-01-14T01:14:22.458Z,7.30
2019-01-14T01:16:50.992Z,7.30
2019-01-14T01:19:19.478Z,7.30
2019-01-14T01:21:49.075Z,7.50
2019-01-14T01:24:17.642Z,7.60
2019-01-14T01:26:46.174Z,7.70
2019-01-14T01:29:14.934Z,7.60
2019-01-14T01:31:43.501Z,7.50
2019-01-14T01:34:12.160Z,7.50
2019-01-14T01:36:40.705Z,7.50
2019-01-14T01:39:09.329Z,7.50
2019-01-14T01:41:37.811Z,7.50
2019-01-14T01:44:06.464Z,7.40
2019-01-14T01:46:35.007Z,7.40
2019-01-14T01:49:03.650Z,7.30
2019-01-14T01:51:32.142Z,7.20
2019-01-14T01:54:00.691Z,7.20
2019-01-14T01:56:29.241Z,7.30
2019-01-14T01:58:57.788Z,7.30
2019-01-14T02:01:26.252Z,7.10
2019-01-14T02:03:54.752Z,7.20
2019-01-14T02:06:23.289Z,7.00
2019-01-14T02:08:51.873Z,6.80
2019-01-14T02:11:20.412Z,6.80
2019-01-14T02:13:49.269Z,6.80
2019-01-14T02:16:17.824Z,6.80
2019-01-14T02:18:46.308Z,6.80
2019-01-14T02:21:14.778Z,6.90
2019-01-14T02:23:43.404Z,6.90
2019-01-14T02:26:11.885Z,6.90
2019-01-14T02:28:40.369Z,7.00
2019-01-14T02:31:08.837Z,7.00
2019-01-14T02:33:37.414Z,6.90
2019-01-14T02:36:06.222Z,7.00
2019-01-14T02:38:34.776Z,7.10
2019-01-14T02:41:03.269Z,7.10
2019-01-14T02:43:31.760Z,7.20
2019-01-14T02:46:00.305Z,7.30
2019-01-14T02:48:28.836Z,7.20
2019-01-14T02:50:57.402Z,7.10
2019-01-14T02:53:25.974Z,7.20
2019-01-14T02:55:54.504Z,7.10
2019-01-14T02:58:22.964Z,7.10
2019-01-14T03:00:51.468Z,7.20
2019-01-14T03:03:19.996Z,7.30
2019-01-14T03:05:48.561Z,7.30
2019-01-14T03:08:17.093Z,7.20
2019-01-14T03:10:45.574Z,7.20
2019-01-14T03:13:15.854Z,7.10
2019-01-14T03:15:44.330Z,7.20
2019-01-14T03:18:12.954Z,7.10
2019-01-14T03:20:41.523Z,7.20
2019-01-14T03:23:10.127Z,7.10
2019-01-14T03:25:38.703Z,7.10
2019-01-14T03:28:07.244Z,7.00
2019-01-14T03:30:35.879Z,7.00
2019-01-14T03:33:04.587Z,7.00
2019-01-14T03:35:33.385Z,7.00
2019-01-14T03:38:01.857Z,6.90
2019-01-14T03:40:30.346Z,6.90
2019-01-14T03:42:59.172Z,7.00
2019-01-14T03:45:27.733Z,6.90
2019-01-14T03:47:56.276Z,6.90
2019-01-14T03:50:24.832Z,6.80
2019-01-14T03:52:53.403Z,6.70
2019-01-14T03:55:22.128Z,6.80
2019-01-14T03:57:52.201Z,6.80
2019-01-14T04:00:20.901Z,6.90
2019-01-14T04:02:49.458Z,6.90
2019-01-14T04:05:17.964Z,6.80
2019-01-14T04:07:46.565Z,6.70
2019-01-14T04:10:16.697Z,6.70
2019-01-14T04:12:45.392Z,6.70
2019-01-14T04:15:16.402Z,6.90
2019-01-14T04:17:45.123Z,7.00
2019-01-14T04:20:16.268Z,6.90
2019-01-14T04:22:45.038Z,6.90
2019-01-14T04:25:13.893Z,6.80
2019-01-14T04:27:42.501Z,6.70
2019-01-14T04:30:14.394Z,6.70
2019-01-14T04:32:42.928Z,6.70
2019-01-14T04:35:12.077Z,6.70
2019-01-14T04:37:40.623Z,6.80
2019-01-14T04:40:11.915Z,6.80
2019-01-14T04:42:40.480Z,7.00
2019-01-14T04:45:11.566Z,7.10
2019-01-14T04:47:40.200Z,7.20
2019-01-14T04:50:11.948Z,7.40
2019-01-14T04:52:40.449Z,7.30
2019-01-14T04:55:09.329Z,7.20
2019-01-14T04:57:37.888Z,7.20
2019-01-14T05:00:12.077Z,7.30
2019-01-14T05:02:40.655Z,7.50
2019-01-14T05:05:09.555Z,7.40
2019-01-14T05:07:38.128Z,7.40
2019-01-14T05:10:09.887Z,7.30
2019-01-14T05:12:38.446Z,7.40
2019-01-14T05:15:09.633Z,7.50
2019-01-14T05:17:38.198Z,7.50
2019-01-14T05:20:12.749Z,7.50
2019-01-14T05:22:41.305Z,7.50
2019-01-14T05:25:10.021Z,7.60
2019-01-14T05:27:38.601Z,7.50
2019-01-14T05:30:10.264Z,7.50
2019-01-14T05:32:38.746Z,7.60
2019-01-14T05:35:08.167Z,7.60
2019-01-14T05:37:37.574Z,7.50
2019-01-14T05:40:18.292Z,7.40
2019-01-14T05:42:46.921Z,7.50
2019-01-14T05:45:15.700Z,7.50
2019-01-14T05:47:44.279Z,7.50
2019-01-14T05:50:14.770Z,7.40
2019-01-14T05:52:46.354Z,7.50
2019-01-14T05:55:16.555Z,7.50
2019-01-14T05:57:45.258Z,7.50
2019-01-14T06:00:22.155Z,7.50
2019-01-14T06:02:50.817Z,7.60
2019-01-14T06:05:19.370Z,7.50
2019-01-14T06:07:47.932Z,7.40
2019-01-14T06:10:16.542Z,7.20
2019-01-14T06:12:45.042Z,7.70
2019-01-14T06:15:15.516Z,7.30
2019-01-14T06:17:44.089Z,7.20
2019-01-14T06:20:15.672Z,7.20
2019-01-14T06:22:44.163Z,7.30
2019-01-14T06:25:14.804Z,7.20
2019-01-14T06:27:43.510Z,7.20
2019-01-14T06:30:15.290Z,7.20
2019-01-14T06:32:43.853Z,6.70
2019-01-14T06:35:12.600Z,7.00
2019-01-14T06:37:41.271Z,7.20
2019-01-14T06:40:15.783Z,7.10
2019-01-14T06:42:44.271Z,7.00
2019-01-14T06:45:13.073Z,6.90
2019-01-14T06:47:41.538Z,6.90
2019-01-14T06:50:13.145Z,6.90
2019-01-14T06:52:41.772Z,6.80
2019-01-14T06:55:11.277Z,6.70
2019-01-14T06:57:40.258Z,6.60
2019-01-14T07:00:11.903Z,6.60
2019-01-14T07:02:40.441Z,6.70
2019-01-14T07:05:09.692Z,6.80
2019-01-14T07:07:38.213Z,6.60
2019-01-14T07:10:09.848Z,6.60
2019-01-14T07:12:38.340Z,6.80
2019-01-14T07:15:08.846Z,6.70
2019-01-14T07:17:37.441Z,6.80
2019-01-14T07:20:09.425Z,6.90
2019-01-14T07:22:37.965Z,6.80
2019-01-14T07:25:08.300Z,6.90
2019-01-14T07:27:37.063Z,6.80
2019-01-14T07:30:16.526Z,6.90
2019-01-14T07:32:45.113Z,6.80
2019-01-14T07:35:14.137Z,6.80
2019-01-14T07:37:42.676Z,6.80
2019-01-14T07:40:13.778Z,6.80
2019-01-14T07:42:42.253Z,6.80
2019-01-14T07:45:13.290Z,6.80
2019-01-14T07:47:41.901Z,6.60
2019-01-14T07:50:12.999Z,6.50
2019-01-14T07:52:41.604Z,6.60
2019-01-14T07:55:10.258Z,6.70
2019-01-14T07:57:39.005Z,6.50
2019-01-14T08:00:16.348Z,6.70
2019-01-14T08:02:44.910Z,6.80
2019-01-14T08:05:13.672Z,6.90
2019-01-14T08:07:42.217Z,6.90
2019-01-14T08:10:11.198Z,7.00
2019-01-14T08:12:39.678Z,7.00
2019-01-14T08:15:14.334Z,7.00
2019-01-14T08:17:42.873Z,6.90
2019-01-14T08:20:11.973Z,6.90
2019-01-14T08:22:40.437Z,6.80
2019-01-14T08:25:11.449Z,6.90
2019-01-14T08:27:40.077Z,6.90
2019-01-14T08:30:11.642Z,6.80
2019-01-14T08:32:40.182Z,6.70
2019-01-14T08:35:09.105Z,6.80
2019-01-14T08:37:37.571Z,6.90
2019-01-14T08:40:09.375Z,7.00
2019-01-14T08:42:38.293Z,7.10
2019-01-14T08:45:08.741Z,7.10
2019-01-14T08:47:37.281Z,7.10
2019-01-14T08:50:11.340Z,7.10
2019-01-14T08:52:39.881Z,7.30
2019-01-14T08:55:08.884Z,7.20
2019-01-14T08:57:37.561Z,7.50
2019-01-14T09:00:11.734Z,7.60
2019-01-14T09:02:40.357Z,7.50
2019-01-14T09:05:09.860Z,7.50
2019-01-14T09:07:38.409Z,7.50
2019-01-14T09:10:10.043Z,7.60
2019-01-14T09:12:38.584Z,7.70
2019-01-14T09:15:10.290Z,7.80
2019-01-14T09:17:38.966Z,7.80
2019-01-14T09:20:13.241Z,7.80
2019-01-14T09:22:41.847Z,7.70
2019-01-14T09:25:10.546Z,7.60
2019-01-14T09:27:39.146Z,8.00
2019-01-14T09:30:10.791Z,7.60
2019-01-14T09:32:39.335Z,7.50
2019-01-14T09:35:08.133Z,7.40
2019-01-14T09:37:36.759Z,7.40
2019-01-14T09:40:08.718Z,7.60
2019-01-14T09:42:37.185Z,7.60
2019-01-14T09:45:06.989Z,7.70
2019-01-14T09:47:35.705Z,7.70
2019-01-14T09:50:06.829Z,7.60
2019-01-14T09:52:35.371Z,7.80
2019-01-14T09:55:07.285Z,8.00
2019-01-14T09:57:35.828Z,8.00
2019-01-14T10:00:07.571Z,7.90
2019-01-14T10:02:36.183Z,7.80
2019-01-14T10:05:07.713Z,7.70
2019-01-14T10:07:36.253Z,7.70
2019-01-14T10:10:07.760Z,7.60
2019-01-14T10:12:36.300Z,7.50
2019-01-14T10:15:07.965Z,7.60
2019-01-14T10:17:36.500Z,7.60
2019-01-14T10:20:06.701Z,7.60
2019-01-14T10:22:35.233Z,7.50
2019-01-14T10:25:04.902Z,7.40
2019-01-14T10:27:33.538Z,7.40
2019-01-14T10:30:02.095Z,7.60
2019-01-14T10:32:30.725Z,7.60
2019-01-14T10:34:59.433Z,7.50
2019-01-14T10:37:27.917Z,7.50
2019-01-14T10:39:56.397Z,7.40
2019-01-14T10:42:24.973Z,7.50
2019-01-14T10:44:53.515Z,7.50
2019-01-14T10:47:22.080Z,7.50
2019-01-14T10:49:50.612Z,7.50
2019-01-14T10:52:19.119Z,7.30
2019-01-14T10:54:47.650Z,7.30
2019-01-14T10:57:16.289Z,7.30
2019-01-14T10:59:44.765Z,7.40
2019-01-14T11:02:13.388Z,7.30
2019-01-14T11:04:41.856Z,7.30
2019-01-14T11:07:10.336Z,6.90
2019-01-14T11:09:38.796Z,7.00
2019-01-14T11:12:07.292Z,7.00
2019-01-14T11:14:35.829Z,7.00
2019-01-14T11:17:04.532Z,6.80
2019-01-14T11:19:33.072Z,6.80
2019-01-14T11:22:01.641Z,6.70
2019-01-14T11:24:33.167Z,6.80
2019-01-14T11:27:01.748Z,6.80
2019-01-14T11:29:34.629Z,6.80
2019-01-14T11:32:03.186Z,6.70
2019-01-14T11:34:31.727Z,6.50
2019-01-14T11:37:00.290Z,6.70
2019-01-14T11:39:28.832Z,7.00
2019-01-14T11:41:57.549Z,7.00
2019-01-14T11:44:26.013Z,7.30
2019-01-14T11:46:54.582Z,7.50
2019-01-14T11:49:23.129Z,7.50
2019-01-14T11:51:51.610Z,7.50
2019-01-14T11:54:20.144Z,7.60
2019-01-14T11:56:48.635Z,7.70
2019-01-14T11:59:17.178Z,7.60
2019-01-14T12:01:45.740Z,7.50
2019-01-14T12:04:14.210Z,7.50
2019-01-14T12:06:42.789Z,7.60
2019-01-14T12:09:12.336Z,7.50
2019-01-14T12:11:41.379Z,7.40
2019-01-14T12:14:09.913Z,7.50
2019-01-14T12:16:38.408Z,7.50
2019-01-14T12:19:07.015Z,7.60
2019-01-14T12:21:36.770Z,7.70
2019-01-14T12:24:05.501Z,7.80
2019-01-14T12:26:34.066Z,8.00
2019-01-14T12:29:02.605Z,8.10
2019-01-14T12:31:31.099Z,8.40
2019-01-14T12:33:59.653Z,8.50
2019-01-14T12:36:31.265Z,8.60
2019-01-14T12:38:59.730Z,8.60
2019-01-14T12:41:28.275Z,8.40
2019-01-14T12:43:57.705Z,8.60
2019-01-14T12:46:26.237Z,8.80
2019-01-14T12:48:55.097Z,9.20
2019-01-14T12:51:23.641Z,9.60
2019-01-14T12:53:52.201Z,9.60
2019-01-14T12:56:20.672Z,9.90
2019-01-14T12:58:49.224Z,9.80
2019-01-14T13:01:17.773Z,9.80
2019-01-14T13:03:46.343Z,9.60
2019-01-14T13:06:14.868Z,9.40
2019-01-14T13:08:43.371Z,9.50
2019-01-14T13:11:11.841Z,9.10
2019-01-14T13:13:40.401Z,8.90
2019-01-14T13:16:08.958Z,8.90
2019-01-14T13:18:37.450Z,8.90
2019-01-14T13:21:06.156Z,8.80
2019-01-14T13:23:34.649Z,8.40
2019-01-14T13:26:03.187Z,7.80
2019-01-14T13:28:31.671Z,7.30
2019-01-14T13:31:00.219Z,6.70
2019-01-14T13:33:28.888Z,5.80
2019-01-14T13:35:57.421Z,5.10
2019-01-14T13:38:25.917Z,4.60
2019-01-14T13:40:54.711Z,4.50
2019-01-14T13:43:23.329Z,4.30
2019-01-14T13:45:52.527Z,4.30
2019-01-14T13:48:21.201Z,4.20
2019-01-14T13:50:49.669Z,4.10
2019-01-14T13:53:18.271Z,3.90
2019-01-14T13:55:46.739Z,3.90
2019-01-14T13:58:15.277Z,4.00
2019-01-14T14:00:43.849Z,4.00
2019-01-14T14:03:12.463Z,3.90
2019-01-14T14:05:41.477Z,3.90
2019-01-14T14:08:09.937Z,3.80
2019-01-14T14:10:38.568Z,3.90
2019-01-14T14:13:07.105Z,3.80
2019-01-14T14:15:35.661Z,3.90
2019-01-14T14:18:04.997Z,3.90
2019-01-14T14:20:33.630Z,3.90
2019-01-14T14:23:02.237Z,3.80
2019-01-14T14:25:30.796Z,3.80
2019-01-14T14:28:00.405Z,3.80
2019-01-14T14:30:33.958Z,3.90
2019-01-14T14:33:02.522Z,3.90
2019-01-14T14:35:31.089Z,3.90
2019-01-14T14:38:01.162Z,4.00
2019-01-14T14:40:29.937Z,4.00
2019-01-14T14:42:58.550Z,4.00
2019-01-14T14:45:27.036Z,4.10
2019-01-14T14:47:55.569Z,4.00
2019-01-14T14:50:24.129Z,4.00
2019-01-14T14:52:52.658Z,4.10
2019-01-14T14:55:21.152Z,4.10
2019-01-14T14:57:49.930Z,4.00
2019-01-14T15:00:22.787Z,4.10
2019-01-14T15:02:51.390Z,4.20
2019-01-14T15:05:20.651Z,4.10
2019-01-14T15:07:49.302Z,4.20
2019-01-14T15:10:19.707Z,4.20
2019-01-14T15:12:48.481Z,4.20
2019-01-14T15:15:18.812Z,4.20
2019-01-14T15:17:47.282Z,4.30
2019-01-14T15:20:17.878Z,4.50
2019-01-14T15:22:46.429Z,4.40
2019-01-14T15:25:15.065Z,4.20
2019-01-14T15:27:43.663Z,4.10
2019-01-14T15:30:15.806Z,4.20
2019-01-14T15:32:44.271Z,4.20
2019-01-14T15:35:13.076Z,4.10
2019-01-14T15:37:41.612Z,4.00
2019-01-14T15:40:13.517Z,4.00
2019-01-14T15:42:42.321Z,4.00
2019-01-14T15:45:13.384Z,3.80
2019-01-14T15:47:41.942Z,3.80
2019-01-14T15:50:11.044Z,3.90
2019-01-14T15:52:39.713Z,3.90
2019-01-14T15:55:11.420Z,3.90
2019-01-14T15:57:39.903Z,3.90
2019-01-14T16:00:19.349Z,3.90
2019-01-14T16:02:47.987Z,3.90
2019-01-14T16:05:17.869Z,3.90
2019-01-14T16:07:46.573Z,3.80
2019-01-14T16:10:17.370Z,3.90
2019-01-14T16:12:45.919Z,4.00
2019-01-14T16:15:15.099Z,4.10
2019-01-14T16:17:43.759Z,4.10
2019-01-14T16:20:17.254Z,4.00
2019-01-14T16:22:45.892Z,4.00
2019-01-14T16:25:14.498Z,4.00
2019-01-14T16:27:43.032Z,4.00
2019-01-14T16:30:17.351Z,4.10
2019-01-14T16:32:46.301Z,4.00
2019-01-14T16:35:14.912Z,4.00
2019-01-14T16:37:43.541Z,4.10
2019-01-14T16:40:17.905Z,4.10
2019-01-14T16:42:42.425Z,4.10
2019-01-14T16:45:16.786Z,4.10
2019-01-14T16:47:45.348Z,4.00
2019-01-14T16:50:15.250Z,3.90
2019-01-14T16:52:43.805Z,4.00
2019-01-14T16:55:14.389Z,4.10
2019-01-14T16:57:42.966Z,4.00
2019-01-14T17:00:17.558Z,4.00
2019-01-14T17:02:46.184Z,4.10
2019-01-14T17:05:15.590Z,4.10
2019-01-14T17:07:44.216Z,4.20
2019-01-14T17:10:14.724Z,4.30
2019-01-14T17:12:43.434Z,4.30
2019-01-14T17:15:12.214Z,4.40
2019-01-14T17:17:40.764Z,4.40
2019-01-14T17:20:12.310Z,4.40
2019-01-14T17:22:40.901Z,4.50
2019-01-14T17:25:09.532Z,4.50
2019-01-14T17:27:38.008Z,4.50
2019-01-14T17:30:09.976Z,4.50
2019-01-14T17:32:39.500Z,4.50
2019-01-14T17:35:08.073Z,4.60
2019-01-14T17:37:36.574Z,4.70
2019-01-14T17:40:11.061Z,4.70
2019-01-14T17:42:39.522Z,4.80
2019-01-14T17:45:09.653Z,4.70
2019-01-14T17:47:38.189Z,4.60
2019-01-14T17:50:17.485Z,4.50
2019-01-14T17:52:46.524Z,4.70
2019-01-14T17:55:15.167Z,4.80
2019-01-14T17:57:43.889Z,4.70
2019-01-14T18:00:18.647Z,4.70
2019-01-14T18:02:47.185Z,4.70
2019-01-14T18:05:15.828Z,4.80
2019-01-14T18:07:44.547Z,5.00
2019-01-14T18:10:15.644Z,5.00
2019-01-14T18:12:44.194Z,5.00
2019-01-14T18:15:12.894Z,5.10
2019-01-14T18:17:41.632Z,5.00
2019-01-14T18:20:13.035Z,5.10
2019-01-14T18:22:41.550Z,5.20
2019-01-14T18:25:10.500Z,5.20
2019-01-14T18:27:39.241Z,5.20
2019-01-14T18:30:10.872Z,5.20
2019-01-14T18:32:39.342Z,5.10
2019-01-14T18:35:08.040Z,5.10
2019-01-14T18:37:36.572Z,5.00
2019-01-14T18:40:08.181Z,5.00
2019-01-14T18:42:36.714Z,4.90
2019-01-14T18:45:08.349Z,4.90
2019-01-14T18:47:36.823Z,4.80
2019-01-14T18:50:08.461Z,4.70
2019-01-14T18:52:36.921Z,4.60
2019-01-14T18:55:06.518Z,4.70
2019-01-14T18:57:35.057Z,4.60
2019-01-14T19:00:05.728Z,4.50
2019-01-14T19:02:34.193Z,4.50
2019-01-14T19:05:02.753Z,4.40
2019-01-14T19:07:31.297Z,4.30
2019-01-14T19:10:00.393Z,4.10
2019-01-14T19:12:28.855Z,4.20
2019-01-14T19:14:57.417Z,4.20
2019-01-14T19:17:25.893Z,4.10
2019-01-14T19:19:54.413Z,4.20
2019-01-14T19:22:22.954Z,4.20
2019-01-14T19:24:51.513Z,4.10
2019-01-14T19:27:20.075Z,4.00
2019-01-14T19:29:48.649Z,4.00
2019-01-14T19:32:19.744Z,4.10
2019-01-14T19:34:48.301Z,4.20
2019-01-14T19:37:16.768Z,4.20
2019-01-14T19:39:48.360Z,4.20
2019-01-14T19:42:19.813Z,4.30
2019-01-14T19:44:48.370Z,4.40
2019-01-14T19:47:16.852Z,4.30
2019-01-14T19:49:45.410Z,4.40
2019-01-14T19:52:14.025Z,4.40
2019-01-14T19:54:42.590Z,4.40
2019-01-14T19:57:11.128Z,4.50
2019-01-14T19:59:39.628Z,4.40
2019-01-14T20:02:08.165Z,4.30
2019-01-14T20:04:36.784Z,4.40
2019-01-14T20:07:10.469Z,4.40
2019-01-14T20:09:35.667Z,4.90
2019-01-14T20:12:04.449Z,4.20
2019-01-14T20:14:33.005Z,4.20
2019-01-14T20:17:01.738Z,4.20
2019-01-14T20:19:30.528Z,4.20
2019-01-14T20:21:59.054Z,4.10
2019-01-14T20:24:27.546Z,4.00
2019-01-14T20:26:56.083Z,3.80
2019-01-14T20:29:24.580Z,3.90
2019-01-14T20:31:53.118Z,3.90
2019-01-14T20:34:21.745Z,4.00
2019-01-14T20:36:50.283Z,4.10
2019-01-14T20:39:18.846Z,4.10
2019-01-14T20:41:47.393Z,4.10
2019-01-14T20:44:15.875Z,4.20
2019-01-14T20:46:44.397Z,4.10
2019-01-14T20:49:12.942Z,4.20
2019-01-14T20:51:41.416Z,4.30
2019-01-14T20:54:09.914Z,4.40
2019-01-14T20:56:38.436Z,4.50
2019-01-14T20:59:07.046Z,4.40
2019-01-14T21:01:35.605Z,4.40
2019-01-14T21:04:04.327Z,4.50
2019-01-14T21:06:32.884Z,4.50
2019-01-14T21:09:01.357Z,4.60
2019-01-14T21:11:29.917Z,4.70
2019-01-14T21:13:58.468Z,4.70
2019-01-14T21:16:27.033Z,4.70
2019-01-14T21:18:55.505Z,4.70
2019-01-14T21:21:23.989Z,4.90
2019-01-14T21:23:53.402Z,4.90
2019-01-14T21:26:21.970Z,5.00
2019-01-14T21:28:50.573Z,5.00
2019-01-14T21:31:21.230Z,5.00
2019-01-14T21:33:49.769Z,4.90
2019-01-14T21:36:21.428Z,4.90
2019-01-14T21:38:50.346Z,5.00
2019-01-14T21:41:19.272Z,5.00
2019-01-14T21:43:47.823Z,5.00
2019-01-14T21:46:17.646Z,5.00
2019-01-14T21:48:46.206Z,5.10
2019-01-14T21:51:14.796Z,5.20
2019-01-14T21:53:43.264Z,5.20
2019-01-14T21:56:11.772Z,5.20
2019-01-14T21:58:40.269Z,5.40
2019-01-14T22:01:08.760Z,5.40
2019-01-14T22:03:37.315Z,5.50
2019-01-14T22:06:05.893Z,5.50
2019-01-14T22:08:34.437Z,5.60
2019-01-14T22:11:03.009Z,5.60
2019-01-14T22:13:31.554Z,5.70
2019-01-14T22:16:00.117Z,5.70
2019-01-14T22:18:28.601Z,5.60
2019-01-14T22:20:57.190Z,5.50
2019-01-14T22:23:25.726Z,5.30
2019-01-14T22:25:54.217Z,5.20
2019-01-14T22:28:22.752Z,5.20
2019-01-14T22:30:51.222Z,5.30
2019-01-14T22:33:19.797Z,5.30
2019-01-14T22:35:48.349Z,5.30
2019-01-14T22:38:16.896Z,5.20
2019-01-14T22:40:45.389Z,5.20
2019-01-14T22:43:13.942Z,5.20
2019-01-14T22:45:42.478Z,5.10
2019-01-14T22:48:11.044Z,5.10
2019-01-14T22:50:39.589Z,5.00
2019-01-14T22:53:08.078Z,4.80
2019-01-14T22:55:36.625Z,4.60
2019-01-14T22:58:05.264Z,4.60
2019-01-14T23:00:38.363Z,4.60
2019-01-14T23:03:08.562Z,4.50
2019-01-14T23:05:37.105Z,4.50
2019-01-14T23:08:05.825Z,4.50
2019-01-14T23:10:34.365Z,4.50
2019-01-14T23:13:02.937Z,4.50
2019-01-14T23:15:32.255Z,4.50
2019-01-14T23:18:00.833Z,4.40
2019-01-14T23:20:29.378Z,4.40
2019-01-14T23:22:57.937Z,4.40
2019-01-14T23:25:26.412Z,4.30
2019-01-14T23:27:54.964Z,4.30
2019-01-14T23:30:23.510Z,4.40
2019-01-14T23:32:52.073Z,4.30
2019-01-14T23:35:20.619Z,4.20
2019-01-14T23:37:49.120Z,4.20
2019-01-14T23:40:17.733Z,4.10
2019-01-14T23:42:46.520Z,4.10
2019-01-14T23:45:14.989Z,4.10
2019-01-14T23:47:43.538Z,4.10
2019-01-14T23:50:13.621Z,4.20
2019-01-14T23:52:42.119Z,4.00
2019-01-14T23:55:10.721Z,4.10
2019-01-14T23:57:39.283Z,4.20
